createdAt,value
2018-08-09T00:00:05.307Z,1013.30
2018-08-09T00:01:10.852Z,1013.30
2018-08-09T00:02:16.392Z,1013.31
2018-08-09T00:03:21.940Z,1013.33
2018-08-09T00:04:27.482Z,1013.39
2018-08-09T00:05:33.023Z,1013.41
2018-08-09T00:06:38.592Z,1013.44
2018-08-09T00:07:44.113Z,1013.44
2018-08-09T00:08:49.657Z,1013.47
2018-08-09T00:09:55.196Z,1013.40
2018-08-09T00:11:00.737Z,1013.44
2018-08-09T00:12:06.278Z,1013.42
2018-08-09T00:13:11.827Z,1013.44
2018-08-09T00:14:17.366Z,1013.41
2018-08-09T00:15:22.908Z,1013.40
2018-08-09T00:16:28.453Z,1013.38
2018-08-09T00:17:34.005Z,1013.37
2018-08-09T00:18:39.540Z,1013.39
2018-08-09T00:19:45.084Z,1013.41
2018-08-09T00:20:50.626Z,1013.42
2018-08-09T00:21:56.170Z,1013.42
2018-08-09T00:23:01.712Z,1013.40
2018-08-09T00:24:07.254Z,1013.41
2018-08-09T00:25:12.798Z,1013.38
2018-08-09T00:26:18.345Z,1013.37
2018-08-09T00:27:23.887Z,1013.39
2018-08-09T00:28:29.429Z,1013.39
2018-08-09T00:29:34.977Z,1013.33
2018-08-09T00:30:40.515Z,1013.36
2018-08-09T00:31:46.058Z,1013.30
2018-08-09T00:32:51.597Z,1013.35
2018-08-09T00:33:57.162Z,1013.34
2018-08-09T00:35:02.684Z,1013.33
2018-08-09T00:36:08.229Z,1013.38
2018-08-09T00:37:13.766Z,1013.34
2018-08-09T00:38:19.309Z,1013.36
2018-08-09T00:39:24.858Z,1013.36
2018-08-09T00:40:30.400Z,1013.37
2018-08-09T00:41:35.940Z,1013.39
2018-08-09T00:42:41.485Z,1013.38
2018-08-09T00:43:47.028Z,1013.38
2018-08-09T00:44:52.566Z,1013.42
2018-08-09T00:45:58.116Z,1013.41
2018-08-09T00:47:03.666Z,1013.42
2018-08-09T00:48:09.198Z,1013.40
2018-08-09T00:49:14.742Z,1013.40
2018-08-09T00:50:20.279Z,1013.41
2018-08-09T00:51:25.821Z,1013.39
2018-08-09T00:52:31.366Z,1013.35
2018-08-09T00:53:36.914Z,1013.37
2018-08-09T00:54:42.446Z,1013.37
2018-08-09T00:55:47.988Z,1013.40
2018-08-09T00:56:53.540Z,1013.39
2018-08-09T00:57:59.079Z,1013.41
2018-08-09T00:59:04.622Z,1013.42
2018-08-09T01:00:10.167Z,1013.38
2018-08-09T01:01:15.707Z,1013.36
2018-08-09T01:02:21.255Z,1013.29
2018-08-09T01:03:26.812Z,1013.31
2018-08-09T01:04:32.334Z,1013.30
2018-08-09T01:05:37.891Z,1013.28
2018-08-09T01:06:43.422Z,1013.34
2018-08-09T01:07:48.966Z,1013.30
2018-08-09T01:08:54.499Z,1013.38
2018-08-09T01:10:00.045Z,1013.32
2018-08-09T01:11:05.590Z,1013.29
2018-08-09T01:12:11.136Z,1013.30
2018-08-09T01:13:16.672Z,1013.23
2018-08-09T01:14:22.220Z,1013.22
2018-08-09T01:15:27.755Z,1013.23
2018-08-09T01:16:33.310Z,1013.23
2018-08-09T01:17:38.846Z,1013.24
2018-08-09T01:18:44.383Z,1013.19
2018-08-09T01:19:49.934Z,1013.18
2018-08-09T01:20:55.490Z,1013.18
2018-08-09T01:22:01.026Z,1013.16
2018-08-09T01:23:06.558Z,1013.15
2018-08-09T01:24:12.095Z,1013.14
2018-08-09T01:25:17.646Z,1013.21
2018-08-09T01:26:23.179Z,1013.18
2018-08-09T01:27:28.727Z,1013.21
2018-08-09T01:28:34.266Z,1013.22
2018-08-09T01:29:39.809Z,1013.19
2018-08-09T01:30:45.357Z,1013.18
2018-08-09T01:31:50.894Z,1013.23
2018-08-09T01:32:56.512Z,1013.29
2018-08-09T01:34:01.978Z,1013.27
2018-08-09T01:35:07.518Z,1013.31
2018-08-09T01:36:13.065Z,1013.29
2018-08-09T01:37:18.606Z,1013.27
2018-08-09T01:38:24.148Z,1013.26
2018-08-09T01:39:29.703Z,1013.27
2018-08-09T01:40:35.236Z,1013.29
2018-08-09T01:41:40.771Z,1013.26
2018-08-09T01:42:46.320Z,1013.26
2018-08-09T01:43:51.865Z,1013.23
2018-08-09T01:44:57.401Z,1013.22
2018-08-09T01:46:02.945Z,1013.26
2018-08-09T01:47:08.486Z,1013.26
2018-08-09T01:48:14.035Z,1013.28
2018-08-09T01:49:19.575Z,1013.26
2018-08-09T01:50:25.121Z,1013.24
2018-08-09T01:51:30.659Z,1013.27
2018-08-09T01:52:36.201Z,1013.30
2018-08-09T01:53:41.742Z,1013.30
2018-08-09T01:54:47.285Z,1013.30
2018-08-09T01:55:52.830Z,1013.28
2018-08-09T01:56:58.368Z,1013.32
2018-08-09T01:58:03.907Z,1013.28
2018-08-09T01:59:09.458Z,1013.33
2018-08-09T02:00:15.001Z,1013.34
2018-08-09T02:01:20.538Z,1013.35
2018-08-09T02:02:26.077Z,1013.31
2018-08-09T02:03:31.627Z,1013.35
2018-08-09T02:04:37.230Z,1013.34
2018-08-09T02:05:42.705Z,1013.37
2018-08-09T02:06:48.248Z,1013.41
2018-08-09T02:07:53.781Z,1013.37
2018-08-09T02:08:59.326Z,1013.42
2018-08-09T02:10:04.877Z,1013.47
2018-08-09T02:11:10.412Z,1013.50
2018-08-09T02:12:15.954Z,1013.50
2018-08-09T02:13:21.496Z,1013.49
2018-08-09T02:14:27.046Z,1013.48
2018-08-09T02:15:32.585Z,1013.48
2018-08-09T02:16:38.123Z,1013.47
2018-08-09T02:17:43.669Z,1013.45
2018-08-09T02:18:49.213Z,1013.42
2018-08-09T02:19:54.756Z,1013.43
2018-08-09T02:21:00.304Z,1013.43
2018-08-09T02:22:05.831Z,1013.43
2018-08-09T02:23:11.376Z,1013.40
2018-08-09T02:24:16.921Z,1013.41
2018-08-09T02:25:22.460Z,1013.42
2018-08-09T02:26:28.004Z,1013.42
2018-08-09T02:27:33.549Z,1013.41
2018-08-09T02:28:39.088Z,1013.42
2018-08-09T02:29:44.632Z,1013.40
2018-08-09T02:30:50.176Z,1013.36
2018-08-09T02:31:55.716Z,1013.33
2018-08-09T02:33:01.253Z,1013.36
2018-08-09T02:34:06.794Z,1013.35
2018-08-09T02:35:12.356Z,1013.40
2018-08-09T02:36:17.884Z,1013.42
2018-08-09T02:37:23.421Z,1013.42
2018-08-09T02:38:28.975Z,1013.46
2018-08-09T02:39:34.510Z,1013.46
2018-08-09T02:40:40.046Z,1013.43
2018-08-09T02:41:45.594Z,1013.46
2018-08-09T02:42:51.135Z,1013.47
2018-08-09T02:43:56.675Z,1013.52
2018-08-09T02:45:02.210Z,1013.54
2018-08-09T02:46:07.755Z,1013.55
2018-08-09T02:47:13.304Z,1013.53
2018-08-09T02:48:18.837Z,1013.53
2018-08-09T02:49:24.388Z,1013.51
2018-08-09T02:50:29.928Z,1013.47
2018-08-09T02:51:35.470Z,1013.47
2018-08-09T02:52:41.015Z,1013.45
2018-08-09T02:53:46.551Z,1013.46
2018-08-09T02:54:52.088Z,1013.45
2018-08-09T02:55:57.633Z,1013.44
2018-08-09T02:57:03.171Z,1013.45
2018-08-09T02:58:08.718Z,1013.48
2018-08-09T02:59:14.291Z,1013.54
2018-08-09T03:00:19.799Z,1013.52
2018-08-09T03:01:25.346Z,1013.54
2018-08-09T03:02:30.889Z,1013.54
2018-08-09T03:03:36.425Z,1013.51
2018-08-09T03:04:41.966Z,1013.51
2018-08-09T03:05:47.518Z,1013.57
2018-08-09T03:06:53.051Z,1013.56
2018-08-09T03:07:58.597Z,1013.54
2018-08-09T03:09:04.137Z,1013.54
2018-08-09T03:10:09.675Z,1013.50
2018-08-09T03:11:15.216Z,1013.55
2018-08-09T03:12:20.765Z,1013.52
2018-08-09T03:13:26.307Z,1013.54
2018-08-09T03:14:31.842Z,1013.54
2018-08-09T03:15:37.389Z,1013.57
2018-08-09T03:16:42.926Z,1013.55
2018-08-09T03:17:48.468Z,1013.50
2018-08-09T03:18:54.006Z,1013.47
2018-08-09T03:19:59.548Z,1013.46
2018-08-09T03:21:05.092Z,1013.47
2018-08-09T03:22:10.635Z,1013.46
2018-08-09T03:23:16.182Z,1013.49
2018-08-09T03:24:21.771Z,1013.49
2018-08-09T03:25:27.263Z,1013.55
2018-08-09T03:26:32.803Z,1013.53
2018-08-09T03:27:38.345Z,1013.61
2018-08-09T03:28:43.883Z,1013.61
2018-08-09T03:29:49.430Z,1013.63
2018-08-09T03:30:54.971Z,1013.61
2018-08-09T03:32:00.512Z,1013.66
2018-08-09T03:33:06.052Z,1013.67
2018-08-09T03:34:11.594Z,1013.67
2018-08-09T03:35:17.138Z,1013.67
2018-08-09T03:36:22.676Z,1013.70
2018-08-09T03:37:28.222Z,1013.72
2018-08-09T03:38:33.756Z,1013.69
2018-08-09T03:39:39.300Z,1013.71
2018-08-09T03:40:44.839Z,1013.73
2018-08-09T03:41:50.387Z,1013.71
2018-08-09T03:42:55.928Z,1013.72
2018-08-09T03:44:01.467Z,1013.71
2018-08-09T03:45:07.009Z,1013.69
2018-08-09T03:46:12.548Z,1013.76
2018-08-09T03:47:18.093Z,1013.74
2018-08-09T03:48:23.634Z,1013.77
2018-08-09T03:49:29.179Z,1013.76
2018-08-09T03:50:34.715Z,1013.79
2018-08-09T03:51:40.256Z,1013.78
2018-08-09T03:52:45.798Z,1013.86
2018-08-09T03:53:51.341Z,1013.85
2018-08-09T03:54:56.883Z,1013.87
2018-08-09T03:56:02.425Z,1013.83
2018-08-09T03:57:07.966Z,1013.85
2018-08-09T03:58:13.530Z,1013.85
2018-08-09T03:59:19.056Z,1013.81
2018-08-09T04:00:24.585Z,1013.84
2018-08-09T04:01:30.130Z,1013.83
2018-08-09T04:02:35.671Z,1013.85
2018-08-09T04:03:41.217Z,1013.80
2018-08-09T04:04:46.758Z,1013.83
2018-08-09T04:05:52.301Z,1013.81
2018-08-09T04:06:57.839Z,1013.84
2018-08-09T04:08:03.377Z,1013.85
2018-08-09T04:09:08.927Z,1013.85
2018-08-09T04:10:14.460Z,1013.85
2018-08-09T04:11:20.010Z,1013.85
2018-08-09T04:12:25.549Z,1013.84
2018-08-09T04:13:31.087Z,1013.86
2018-08-09T04:14:36.631Z,1013.86
2018-08-09T04:15:42.179Z,1013.86
2018-08-09T04:16:47.717Z,1013.87
2018-08-09T04:17:53.254Z,1013.82
2018-08-09T04:18:58.804Z,1013.83
2018-08-09T04:20:04.343Z,1013.79
2018-08-09T04:21:09.877Z,1013.79
2018-08-09T04:22:15.420Z,1013.77
2018-08-09T04:23:20.968Z,1013.75
2018-08-09T04:24:26.506Z,1013.77
2018-08-09T04:25:32.050Z,1013.78
2018-08-09T04:26:37.734Z,1013.79
2018-08-09T04:27:43.970Z,1013.79
2018-08-09T04:28:48.675Z,1013.79
2018-08-09T04:29:54.219Z,1013.82
2018-08-09T04:30:59.759Z,1013.85
2018-08-09T04:32:05.307Z,1013.83
2018-08-09T04:33:10.840Z,1013.84
2018-08-09T04:34:16.376Z,1013.85
2018-08-09T04:35:21.923Z,1013.85
2018-08-09T04:36:27.469Z,1013.82
2018-08-09T04:37:33.008Z,1013.83
2018-08-09T04:38:38.545Z,1013.81
2018-08-09T04:39:44.100Z,1013.79
2018-08-09T04:40:49.627Z,1013.82
2018-08-09T04:41:55.166Z,1013.82
2018-08-09T04:43:00.710Z,1013.87
2018-08-09T04:44:06.249Z,1013.84
2018-08-09T04:45:11.800Z,1013.84
2018-08-09T04:46:17.343Z,1013.83
2018-08-09T04:47:22.881Z,1013.81
2018-08-09T04:48:28.417Z,1013.78
2018-08-09T04:49:33.964Z,1013.76
2018-08-09T04:50:39.505Z,1013.79
2018-08-09T04:51:45.044Z,1013.79
2018-08-09T04:52:50.586Z,1013.83
2018-08-09T04:53:56.124Z,1013.82
2018-08-09T04:55:01.674Z,1013.84
2018-08-09T04:56:07.226Z,1013.88
2018-08-09T04:57:12.758Z,1013.87
2018-08-09T04:58:18.357Z,1013.89
2018-08-09T04:59:23.840Z,1013.92
2018-08-09T05:00:29.382Z,1013.90
2018-08-09T05:01:34.927Z,1013.79
2018-08-09T05:02:40.471Z,1013.78
2018-08-09T05:03:46.009Z,1013.79
2018-08-09T05:04:51.550Z,1013.76
2018-08-09T05:05:57.093Z,1013.76
2018-08-09T05:07:02.672Z,1013.77
2018-08-09T05:08:08.178Z,1013.76
2018-08-09T05:09:13.711Z,1013.75
2018-08-09T05:10:19.328Z,1013.78
2018-08-09T05:11:24.801Z,1013.80
2018-08-09T05:12:30.345Z,1013.79
2018-08-09T05:13:35.886Z,1013.83
2018-08-09T05:14:41.422Z,1013.81
2018-08-09T05:15:47.015Z,1013.85
2018-08-09T05:16:52.518Z,1013.90
2018-08-09T05:19:29.660Z,1013.87
2018-08-09T05:20:35.243Z,1013.90
2018-08-09T05:22:33.614Z,1013.88
2018-08-09T05:23:39.141Z,1013.92
2018-08-09T05:25:37.561Z,1013.96
2018-08-09T05:26:43.103Z,1013.96
2018-08-09T05:27:48.642Z,1013.97
2018-08-09T05:28:54.186Z,1013.99
2018-08-09T05:29:59.725Z,1013.99
2018-08-09T05:31:05.265Z,1013.96
2018-08-09T05:32:10.806Z,1013.95
2018-08-09T05:33:16.345Z,1013.96
2018-08-09T05:34:21.895Z,1013.98
2018-08-09T05:35:27.436Z,1013.91
2018-08-09T05:36:32.978Z,1013.91
2018-08-09T05:37:38.520Z,1013.91
2018-08-09T05:38:44.064Z,1013.92
2018-08-09T05:39:49.603Z,1013.91
2018-08-09T05:40:55.151Z,1013.92
2018-08-09T05:42:00.687Z,1013.94
2018-08-09T05:43:06.236Z,1013.96
2018-08-09T05:44:11.774Z,1013.94
2018-08-09T05:45:17.383Z,1013.91
2018-08-09T05:46:22.866Z,1013.94
2018-08-09T05:47:28.410Z,1013.95
2018-08-09T05:48:33.944Z,1013.97
2018-08-09T05:49:39.488Z,1014.02
2018-08-09T05:50:45.035Z,1014.03
2018-08-09T05:51:50.585Z,1013.99
2018-08-09T05:52:56.164Z,1013.92
2018-08-09T05:54:01.659Z,1013.92
2018-08-09T05:55:07.206Z,1013.92
2018-08-09T05:56:12.754Z,1013.93
2018-08-09T05:57:18.291Z,1013.95
2018-08-09T05:58:23.872Z,1013.94
2018-08-09T05:59:29.373Z,1013.91
2018-08-09T06:00:34.922Z,1013.90
2018-08-09T06:01:40.462Z,1013.90
2018-08-09T06:02:46.009Z,1013.90
2018-08-09T06:03:51.552Z,1013.87
2018-08-09T06:04:57.091Z,1013.88
2018-08-09T06:06:02.640Z,1013.91
2018-08-09T06:07:08.190Z,1013.86
2018-08-09T06:08:13.735Z,1013.86
2018-08-09T06:09:19.267Z,1013.84
2018-08-09T06:10:24.811Z,1013.79
2018-08-09T06:11:30.361Z,1013.78
2018-08-09T06:12:35.903Z,1013.73
2018-08-09T06:13:41.445Z,1013.77
2018-08-09T06:14:46.984Z,1013.73
2018-08-09T06:15:52.528Z,1013.76
2018-08-09T06:16:58.076Z,1013.71
2018-08-09T06:18:03.621Z,1013.71
2018-08-09T06:19:09.162Z,1013.73
2018-08-09T06:20:14.711Z,1013.74
2018-08-09T06:21:20.246Z,1013.78
2018-08-09T06:22:25.794Z,1013.80
2018-08-09T06:23:31.343Z,1013.86
2018-08-09T06:24:36.889Z,1013.88
2018-08-09T06:25:42.421Z,1013.91
2018-08-09T06:26:47.973Z,1013.91
2018-08-09T06:27:53.514Z,1013.94
2018-08-09T06:28:59.054Z,1013.95
2018-08-09T06:30:04.607Z,1013.94
2018-08-09T06:31:10.142Z,1013.96
2018-08-09T06:32:15.690Z,1013.91
2018-08-09T06:33:21.288Z,1013.90
2018-08-09T06:34:26.773Z,1013.93
2018-08-09T06:35:32.323Z,1013.96
2018-08-09T06:36:37.868Z,1013.97
2018-08-09T06:37:43.408Z,1014.00
2018-08-09T06:38:48.952Z,1014.03
2018-08-09T06:39:54.498Z,1014.03
2018-08-09T06:41:00.042Z,1014.07
2018-08-09T06:42:05.585Z,1014.03
2018-08-09T06:43:11.128Z,1013.97
2018-08-09T06:44:16.673Z,1013.97
2018-08-09T06:45:22.216Z,1013.91
2018-08-09T06:46:27.763Z,1013.93
2018-08-09T06:47:33.308Z,1013.97
2018-08-09T06:48:38.850Z,1014.01
2018-08-09T06:49:44.396Z,1013.99
2018-08-09T06:50:49.943Z,1014.04
2018-08-09T06:51:55.490Z,1013.99
2018-08-09T06:53:01.043Z,1014.05
2018-08-09T06:54:06.578Z,1014.03
2018-08-09T06:55:12.117Z,1014.06
2018-08-09T06:56:17.690Z,1014.06
2018-08-09T06:57:23.217Z,1014.06
2018-08-09T06:58:28.764Z,1014.03
2018-08-09T07:01:05.896Z,1014.12
2018-08-09T07:02:11.432Z,1014.14
2018-08-09T07:04:09.869Z,1014.12
2018-08-09T07:05:15.400Z,1014.16
2018-08-09T07:07:13.830Z,1014.13
2018-08-09T07:08:19.366Z,1014.14
2018-08-09T07:09:24.907Z,1014.12
2018-08-09T07:10:30.453Z,1014.09
2018-08-09T07:11:35.999Z,1014.07
2018-08-09T07:12:41.556Z,1014.05
2018-08-09T07:13:47.091Z,1014.02
2018-08-09T07:14:52.756Z,1014.00
2018-08-09T07:15:58.172Z,1013.96
2018-08-09T07:17:03.719Z,1013.98
2018-08-09T07:18:09.271Z,1013.95
2018-08-09T07:19:14.808Z,1013.92
2018-08-09T07:20:20.405Z,1013.90
2018-08-09T07:21:25.897Z,1013.90
2018-08-09T07:22:31.458Z,1013.89
2018-08-09T07:23:36.986Z,1013.90
2018-08-09T07:24:42.541Z,1013.91
2018-08-09T07:25:48.075Z,1013.94
2018-08-09T07:26:53.629Z,1014.01
2018-08-09T07:27:59.166Z,1014.00
2018-08-09T07:29:04.714Z,1014.06
2018-08-09T07:30:10.261Z,1014.02
2018-08-09T07:31:15.806Z,1013.95
2018-08-09T07:32:21.351Z,1013.91
2018-08-09T07:33:26.895Z,1013.89
2018-08-09T07:34:32.436Z,1013.86
2018-08-09T07:35:37.997Z,1013.84
2018-08-09T07:36:43.535Z,1013.90
2018-08-09T07:37:49.072Z,1013.89
2018-08-09T07:38:54.618Z,1013.90
2018-08-09T07:40:00.165Z,1013.97
2018-08-09T07:41:05.708Z,1013.93
2018-08-09T07:42:11.257Z,1013.88
2018-08-09T07:43:16.804Z,1013.89
2018-08-09T07:44:22.355Z,1013.82
2018-08-09T07:45:27.896Z,1013.84
2018-08-09T07:46:33.438Z,1013.85
2018-08-09T07:47:38.986Z,1013.85
2018-08-09T07:48:44.551Z,1013.85
2018-08-09T07:49:50.069Z,1013.85
2018-08-09T07:50:55.644Z,1013.86
2018-08-09T07:52:01.162Z,1013.87
2018-08-09T07:53:06.706Z,1013.87
2018-08-09T07:54:12.305Z,1013.85
2018-08-09T07:55:17.803Z,1013.87
2018-08-09T07:56:23.349Z,1013.86
2018-08-09T07:57:28.889Z,1013.81
2018-08-09T07:58:34.438Z,1013.80
2018-08-09T07:59:39.987Z,1013.82
2018-08-09T08:00:45.530Z,1013.77
2018-08-09T08:01:51.068Z,1013.78
2018-08-09T08:02:56.621Z,1013.74
2018-08-09T08:04:02.163Z,1013.69
2018-08-09T08:05:07.706Z,1013.73
2018-08-09T08:06:13.342Z,1013.72
2018-08-09T08:07:18.803Z,1013.75
2018-08-09T08:08:24.354Z,1013.75
2018-08-09T08:09:29.892Z,1013.76
2018-08-09T08:10:35.438Z,1013.77
2018-08-09T08:11:40.981Z,1013.77
2018-08-09T08:12:46.527Z,1013.72
2018-08-09T08:13:52.071Z,1013.67
2018-08-09T08:14:57.667Z,1013.68
2018-08-09T08:16:03.163Z,1013.70
2018-08-09T08:17:08.709Z,1013.71
2018-08-09T08:19:46.367Z,1013.67
2018-08-09T08:20:51.939Z,1013.62
2018-08-09T08:21:57.480Z,1013.60
2018-08-09T08:23:02.984Z,1013.55
2018-08-09T08:24:08.745Z,1013.56
2018-08-09T08:25:14.073Z,1013.60
2018-08-09T08:26:19.613Z,1013.58
2018-08-09T08:27:25.231Z,1013.56
2018-08-09T08:28:30.740Z,1013.54
2018-08-09T08:29:36.247Z,1013.52
2018-08-09T08:30:41.802Z,1013.51
2018-08-09T08:31:47.346Z,1013.50
2018-08-09T08:32:52.894Z,1013.53
2018-08-09T08:33:58.431Z,1013.48
2018-08-09T08:35:03.980Z,1013.49
2018-08-09T08:36:09.520Z,1013.48
2018-08-09T08:37:15.065Z,1013.46
2018-08-09T08:38:20.615Z,1013.51
2018-08-09T08:39:26.159Z,1013.46
2018-08-09T08:40:31.706Z,1013.42
2018-08-09T08:41:37.311Z,1013.40
2018-08-09T08:42:42.793Z,1013.38
2018-08-09T08:43:48.337Z,1013.33
2018-08-09T08:44:53.896Z,1013.28
2018-08-09T08:45:59.437Z,1013.29
2018-08-09T08:47:05.014Z,1013.37
2018-08-09T08:48:10.528Z,1013.28
2018-08-09T08:49:16.070Z,1013.23
2018-08-09T08:50:21.610Z,1013.19
2018-08-09T08:51:27.158Z,1013.20
2018-08-09T08:52:32.704Z,1013.19
2018-08-09T08:53:38.250Z,1013.18
2018-08-09T08:54:43.788Z,1013.16
2018-08-09T08:55:49.337Z,1013.16
2018-08-09T08:56:54.896Z,1013.16
2018-08-09T08:58:00.438Z,1013.15
2018-08-09T08:59:05.981Z,1013.13
2018-08-09T09:00:11.531Z,1013.14
2018-08-09T09:01:17.072Z,1013.14
2018-08-09T09:02:22.703Z,1013.11
2018-08-09T09:03:28.168Z,1013.13
2018-08-09T09:04:33.707Z,1013.05
2018-08-09T09:05:39.252Z,1013.07
2018-08-09T09:06:44.806Z,1013.01
2018-08-09T09:07:50.347Z,1013.09
2018-08-09T09:08:55.900Z,1012.99
2018-08-09T09:10:01.444Z,1013.07
2018-08-09T09:11:06.987Z,1013.07
2018-08-09T09:12:12.535Z,1013.09
2018-08-09T09:13:18.086Z,1013.00
2018-08-09T09:14:23.628Z,1013.05
2018-08-09T09:15:29.183Z,1013.07
2018-08-09T09:16:34.722Z,1013.01
2018-08-09T09:17:40.270Z,1013.04
2018-08-09T09:18:45.818Z,1013.01
2018-08-09T09:19:52.059Z,1013.04
2018-08-09T09:20:57.477Z,1013.11
2018-08-09T09:22:02.641Z,1013.06
2018-08-09T09:23:08.000Z,1013.06
2018-08-09T09:24:13.550Z,1013.02
2018-08-09T09:25:19.090Z,1013.05
2018-08-09T09:26:24.661Z,1013.01
2018-08-09T09:27:30.207Z,1013.01
2018-08-09T09:28:35.737Z,1013.08
2018-08-09T09:31:12.896Z,1013.03
2018-08-09T09:32:18.419Z,1013.04
2018-08-09T09:34:17.360Z,1012.98
2018-08-09T09:35:22.889Z,1012.99
2018-08-09T09:36:28.431Z,1012.99
2018-08-09T09:37:33.983Z,1013.02
2018-08-09T09:38:39.519Z,1012.95
2018-08-09T09:39:45.065Z,1012.94
2018-08-09T09:40:50.620Z,1012.94
2018-08-09T09:41:56.157Z,1013.00
2018-08-09T09:43:01.711Z,1013.01
2018-08-09T09:44:07.263Z,1013.03
2018-08-09T09:45:12.861Z,1013.08
2018-08-09T09:46:18.353Z,1013.03
2018-08-09T09:47:23.897Z,1013.03
2018-08-09T09:48:29.442Z,1012.96
2018-08-09T09:49:34.988Z,1013.03
2018-08-09T09:50:40.545Z,1012.95
2018-08-09T09:51:46.081Z,1012.92
2018-08-09T09:52:51.632Z,1012.95
2018-08-09T09:53:57.164Z,1012.93
2018-08-09T09:55:02.792Z,1012.99
2018-08-09T09:56:08.261Z,1012.91
2018-08-09T09:57:13.803Z,1012.88
2018-08-09T09:58:19.350Z,1012.84
2018-08-09T09:59:24.903Z,1012.83
2018-08-09T10:00:30.441Z,1012.79
2018-08-09T10:01:35.999Z,1012.74
2018-08-09T10:02:41.539Z,1012.74
2018-08-09T10:03:47.085Z,1012.75
2018-08-09T10:04:52.629Z,1012.77
2018-08-09T10:05:58.170Z,1012.79
2018-08-09T10:08:35.825Z,1012.70
2018-08-09T10:09:41.358Z,1012.66
2018-08-09T10:12:18.992Z,1012.66
2018-08-09T10:13:24.536Z,1012.64
2018-08-09T10:14:30.081Z,1012.57
2018-08-09T10:15:35.636Z,1012.59
2018-08-09T10:16:41.177Z,1012.59
2018-08-09T10:17:46.721Z,1012.55
2018-08-09T10:18:52.275Z,1012.49
2018-08-09T10:19:57.817Z,1012.53
2018-08-09T10:21:03.363Z,1012.52
2018-08-09T10:22:08.911Z,1012.52
2018-08-09T10:23:14.458Z,1012.43
2018-08-09T10:24:19.998Z,1012.42
2018-08-09T10:25:25.542Z,1012.34
2018-08-09T10:26:31.097Z,1012.32
2018-08-09T10:27:36.641Z,1012.29
2018-08-09T10:28:42.190Z,1012.27
2018-08-09T10:29:47.745Z,1012.31
2018-08-09T10:30:53.285Z,1012.27
2018-08-09T10:31:58.822Z,1012.29
2018-08-09T10:33:04.372Z,1012.27
2018-08-09T10:34:10.064Z,1012.24
2018-08-09T10:35:15.466Z,1012.27
2018-08-09T10:36:21.015Z,1012.25
2018-08-09T10:37:26.564Z,1012.22
2018-08-09T10:38:32.104Z,1012.21
2018-08-09T10:39:37.658Z,1012.15
2018-08-09T10:40:43.196Z,1012.14
2018-08-09T10:43:20.366Z,1012.05
2018-08-09T10:44:25.882Z,1012.04
2018-08-09T10:46:24.805Z,1012.04
2018-08-09T10:49:02.020Z,1012.00
2018-08-09T10:50:07.505Z,1011.95
2018-08-09T10:52:06.423Z,1011.89
2018-08-09T10:53:11.971Z,1011.98
2018-08-09T10:54:17.518Z,1011.92
2018-08-09T10:55:23.058Z,1011.89
2018-08-09T10:56:28.610Z,1011.86
2018-08-09T10:57:34.155Z,1011.89
2018-08-09T10:58:39.702Z,1011.84
2018-08-09T10:59:45.250Z,1011.87
2018-08-09T11:00:50.834Z,1011.92
2018-08-09T11:01:56.345Z,1011.86
2018-08-09T11:03:01.887Z,1011.87
2018-08-09T11:04:07.444Z,1011.86
2018-08-09T11:05:12.981Z,1011.84
2018-08-09T11:06:18.551Z,1011.79
2018-08-09T11:07:24.071Z,1011.82
2018-08-09T11:08:29.622Z,1011.80
2018-08-09T11:09:35.176Z,1011.84
2018-08-09T11:10:40.716Z,1011.79
2018-08-09T11:11:46.262Z,1011.79
2018-08-09T11:12:51.809Z,1011.77
2018-08-09T11:13:57.360Z,1011.78
2018-08-09T11:15:02.948Z,1011.76
2018-08-09T11:16:08.446Z,1011.74
2018-08-09T11:17:14.022Z,1011.74
2018-08-09T11:18:19.547Z,1011.77
2018-08-09T11:19:25.094Z,1011.79
2018-08-09T11:20:30.634Z,1011.75
2018-08-09T11:21:36.185Z,1011.77
2018-08-09T11:22:41.731Z,1011.78
2018-08-09T11:25:19.384Z,1011.59
2018-08-09T11:26:24.916Z,1011.59
2018-08-09T11:27:30.488Z,1011.59
2018-08-09T11:28:36.012Z,1011.58
2018-08-09T11:29:41.561Z,1011.55
2018-08-09T11:30:47.099Z,1011.56
2018-08-09T11:31:52.659Z,1011.46
2018-08-09T11:32:58.199Z,1011.38
2018-08-09T11:34:03.769Z,1011.34
2018-08-09T11:35:09.289Z,1011.34
2018-08-09T11:37:46.452Z,1011.37
2018-08-09T11:38:52.097Z,1011.40
2018-08-09T11:40:50.430Z,1011.30
2018-08-09T11:41:55.959Z,1011.37
2018-08-09T11:43:54.431Z,1011.43
2018-08-09T11:44:59.941Z,1011.45
2018-08-09T11:46:58.406Z,1011.39
2018-08-09T11:48:03.959Z,1011.42
2018-08-09T11:50:02.901Z,1011.36
2018-08-09T11:51:08.435Z,1011.35
2018-08-09T11:52:13.987Z,1011.27
2018-08-09T11:53:19.534Z,1011.24
2018-08-09T11:54:25.084Z,1011.18
2018-08-09T11:55:30.622Z,1011.16
2018-08-09T11:56:36.214Z,1011.16
2018-08-09T11:57:41.726Z,1011.13
2018-08-09T11:58:47.271Z,1011.13
2018-08-09T11:59:52.824Z,1011.10
2018-08-09T12:00:58.360Z,1011.07
2018-08-09T12:02:03.908Z,1011.03
2018-08-09T12:03:09.493Z,1011.00
2018-08-09T12:04:15.004Z,1010.99
2018-08-09T12:05:20.552Z,1010.99
2018-08-09T12:06:26.105Z,1011.04
2018-08-09T12:07:31.652Z,1011.02
2018-08-09T12:08:37.198Z,1011.04
2018-08-09T12:09:42.748Z,1011.05
2018-08-09T12:10:48.293Z,1010.97
2018-08-09T12:11:53.837Z,1010.94
2018-08-09T12:12:59.384Z,1010.97
2018-08-09T12:14:04.938Z,1010.96
2018-08-09T12:15:10.510Z,1010.89
2018-08-09T12:16:16.031Z,1010.91
2018-08-09T12:17:21.573Z,1010.85
2018-08-09T12:18:27.126Z,1010.85
2018-08-09T12:19:32.669Z,1010.83
2018-08-09T12:20:38.243Z,1010.80
2018-08-09T12:21:43.764Z,1010.75
2018-08-09T12:22:49.318Z,1010.61
2018-08-09T12:23:54.859Z,1010.56
2018-08-09T12:25:00.409Z,1010.52
2018-08-09T12:26:05.958Z,1010.48
2018-08-09T12:27:11.506Z,1010.41
2018-08-09T12:28:17.053Z,1010.39
2018-08-09T12:29:22.594Z,1010.34
2018-08-09T12:30:28.199Z,1010.36
2018-08-09T12:31:33.693Z,1010.32
2018-08-09T12:32:39.237Z,1010.33
2018-08-09T12:33:44.788Z,1010.33
2018-08-09T12:34:50.337Z,1010.35
2018-08-09T12:35:55.885Z,1010.32
2018-08-09T12:37:01.431Z,1010.31
2018-08-09T12:38:06.978Z,1010.27
2018-08-09T12:39:12.530Z,1010.30
2018-08-09T12:40:18.074Z,1010.27
2018-08-09T12:41:23.620Z,1010.25
2018-08-09T12:42:29.175Z,1010.25
2018-08-09T12:43:34.717Z,1010.22
2018-08-09T12:44:40.276Z,1010.20
2018-08-09T12:45:45.820Z,1010.15
2018-08-09T12:46:51.367Z,1010.11
2018-08-09T12:47:56.910Z,1010.12
2018-08-09T12:49:02.554Z,1010.09
2018-08-09T12:50:08.012Z,1010.10
2018-08-09T12:51:13.569Z,1010.09
2018-08-09T12:52:19.102Z,1010.01
2018-08-09T12:53:24.652Z,1010.01
2018-08-09T12:54:30.198Z,1010.05
2018-08-09T12:55:35.769Z,1010.00
2018-08-09T12:56:41.295Z,1010.02
2018-08-09T12:57:46.849Z,1009.97
2018-08-09T12:58:52.399Z,1009.90
2018-08-09T12:59:57.983Z,1009.84
2018-08-09T13:01:03.486Z,1009.82
2018-08-09T13:02:09.037Z,1009.81
2018-08-09T13:03:14.584Z,1009.78
2018-08-09T13:04:20.139Z,1009.77
2018-08-09T13:05:25.681Z,1009.72
2018-08-09T13:06:31.230Z,1009.70
2018-08-09T13:07:36.777Z,1009.70
2018-08-09T13:08:42.325Z,1009.72
2018-08-09T13:09:47.872Z,1009.67
2018-08-09T13:10:53.425Z,1009.66
2018-08-09T13:11:58.969Z,1009.66
2018-08-09T13:13:04.516Z,1009.65
2018-08-09T13:14:10.065Z,1009.71
2018-08-09T13:15:15.620Z,1009.69
2018-08-09T13:16:21.170Z,1009.65
2018-08-09T13:17:26.711Z,1009.60
2018-08-09T13:18:32.260Z,1009.52
2018-08-09T13:19:37.817Z,1009.51
2018-08-09T13:20:43.355Z,1009.51
2018-08-09T13:21:48.912Z,1009.44
2018-08-09T13:22:54.452Z,1009.40
2018-08-09T13:24:00.011Z,1009.43
2018-08-09T13:25:05.553Z,1009.40
2018-08-09T13:26:11.094Z,1009.36
2018-08-09T13:27:16.645Z,1009.34
2018-08-09T13:28:22.198Z,1009.35
2018-08-09T13:29:27.747Z,1009.31
2018-08-09T13:30:33.294Z,1009.35
2018-08-09T13:31:38.842Z,1009.34
2018-08-09T13:32:44.387Z,1009.32
2018-08-09T13:33:49.959Z,1009.31
2018-08-09T13:34:55.491Z,1009.23
2018-08-09T13:36:01.039Z,1009.26
2018-08-09T13:37:06.575Z,1009.30